Time;durP1;ratioP1;P1;durP2;ratioP2;P2;SDS_P1;SDS_P2;PMS_P1;PMS_P2;Temp;Humidity;BMP_temperature;BMP_pressure;BME280_temperature;BME280_humidity;BME280_pressure;Samples;Min_cycle;Max_cycle;Signal;HPM_P1;HPM_P2
2021/10/16 07:52:53;;;;;;;10.82;4.95;;;;;;;9.44;100.00;99185.11;2239078;78;22629;-84
2021/10/16 07:55:54;;;;;;;8.63;3.67;;;;;;;9.38;100.00;99178.23;2215171;80;21709;-85
2021/10/16 07:58:55;;;;;;;9.80;4.12;;;;;;;9.35;100.00;99187.70;2195124;80;21004;-85
2021/10/16 08:01:56;;;;;;;8.23;4.28;;;;;;;9.37;100.00;99191.45;2194370;80;21573;-86
2021/10/16 08:04:59;;;;;;;11.33;4.08;;;;;;;9.51;100.00;99192.61;2207104;80;21076;-87
2021/10/16 08:08:01;;;;;;;12.55;4.58;;;;;;;9.57;100.00;99190.18;2214217;80;21013;-89
2021/10/16 08:11:04;;;;;;;12.37;5.92;;;;;;;9.63;100.00;99206.54;2206805;80;21114;-88
2021/10/16 08:14:04;;;;;;;12.25;5.12;;;;;;;9.69;100.00;99200.67;2206740;80;21104;-87
2021/10/16 08:17:05;;;;;;;7.75;4.25;;;;;;;9.74;100.00;99201.97;2217730;80;22145;-84
2021/10/16 08:20:06;;;;;;;13.18;6.17;;;;;;;9.78;100.00;99208.01;2207283;80;21036;-89
2021/10/16 08:23:07;;;;;;;10.15;5.75;;;;;;;9.81;100.00;99214.24;2205970;80;21025;-92
2021/10/16 08:26:08;;;;;;;8.00;4.60;;;;;;;10.00;100.00;99206.56;2213320;80;21515;-94
2021/10/16 08:29:08;;;;;;;11.88;5.65;;;;;;;10.13;100.00;99214.72;2223035;80;21009;-87
2021/10/16 08:32:09;;;;;;;11.40;5.03;;;;;;;10.31;100.00;99205.91;2214476;80;21009;-90
2021/10/16 08:35:10;;;;;;;10.40;5.75;;;;;;;10.67;100.00;99211.57;2199808;80;20976;-91
2021/10/16 08:38:11;;;;;;;10.93;4.00;;;;;;;10.67;100.00;99211.57;2210839;80;21009;-86
2021/10/16 08:41:15;;;;;;;11.65;4.50;;;;;;;10.88;100.00;99220.17;2175558;80;22050;-93
2021/10/16 08:44:16;;;;;;;8.20;3.30;;;;;;;11.02;100.00;99221.61;2203973;80;21164;-94
2021/10/16 08:47:17;;;;;;;10.00;3.55;;;;;;;11.25;100.00;99215.63;2210984;80;21062;-91
2021/10/16 08:50:17;;;;;;;9.68;3.62;;;;;;;11.48;100.00;99226.14;2208015;80;21033;-92
2021/10/16 08:53:18;;;;;;;8.83;3.98;;;;;;;11.56;100.00;99226.91;2206831;80;21019;-92
2021/10/16 08:56:19;;;;;;;10.35;4.22;;;;;;;11.65;100.00;99219.81;2199850;80;21182;-86
2021/10/16 08:59:20;;;;;;;11.60;4.00;;;;;;;11.82;100.00;99218.75;2189896;80;21071;-93
2021/10/16 09:02:21;;;;;;;6.03;3.15;;;;;;;11.86;100.00;99223.14;2211966;80;21044;-90
2021/10/16 09:05:21;;;;;;;9.25;3.37;;;;;;;11.89;100.00;99220.18;2209411;80;21037;-92
2021/10/16 09:08:22;;;;;;;17.77;4.40;;;;;;;11.82;100.00;99215.31;2203871;80;21511;-90
2021/10/16 09:11:23;;;;;;;7.47;3.30;;;;;;;11.89;100.00;99228.88;2218827;80;20980;-87
2021/10/16 09:14:24;;;;;;;7.50;3.60;;;;;;;11.91;100.00;99232.63;2184704;80;21028;-85
2021/10/16 09:17:27;;;;;;;5.72;3.00;;;;;;;11.91;100.00;99233.44;2219225;80;21570;-84
2021/10/16 09:20:27;;;;;;;11.33;3.17;;;;;;;11.92;100.00;99225.88;2221959;80;20966;-83
2021/10/16 09:23:28;;;;;;;6.00;3.27;;;;;;;12.01;100.00;99233.20;2212245;80;21071;-85
2021/10/16 09:26:30;;;;;;;10.80;4.33;;;;;;;11.95;100.00;99236.02;2194111;80;20993;-86
2021/10/16 09:29:31;;;;;;;13.32;4.60;;;;;;;11.89;100.00;99239.36;2194599;80;21100;-84
2021/10/16 09:32:32;;;;;;;10.98;4.00;;;;;;;11.99;100.00;99242.25;2189267;80;20965;-84
2021/10/16 09:35:33;;;;;;;9.18;3.27;;;;;;;12.02;100.00;99236.14;2215034;80;21606;-83
2021/10/16 09:38:33;;;;;;;8.75;4.53;;;;;;;12.09;100.00;99239.70;2215273;80;21527;-87
2021/10/16 09:41:35;;;;;;;7.10;3.55;;;;;;;12.03;100.00;99238.27;2214348;80;21015;-85
2021/10/16 09:44:36;;;;;;;11.00;3.45;;;;;;;11.95;99.33;99243.08;2222212;80;21043;-84
2021/10/16 09:47:40;;;;;;;12.75;4.97;;;;;;;11.78;94.40;99246.77;2201300;80;21073;-85
2021/10/16 09:50:40;;;;;;;10.35;3.75;;;;;;;11.74;96.92;99242.88;2213465;80;21055;-85
2021/10/16 09:53:40;;;;;;;12.50;3.62;;;;;;;11.74;98.16;99244.19;2224945;80;21016;-83
2021/10/16 09:56:42;;;;;;;8.63;3.20;;;;;;;11.87;97.79;99236.57;2204556;80;21085;-83
2021/10/16 09:59:42;;;;;;;8.85;3.17;;;;;;;12.03;94.08;99253.52;2195695;80;21031;-84
2021/10/16 10:02:43;;;;;;;14.93;3.92;;;;;;;12.14;94.34;99247.03;2200749;80;21032;-84
2021/10/16 10:05:44;;;;;;;8.25;3.52;;;;;;;12.28;92.23;99244.14;2213219;80;21108;-87
2021/10/16 10:08:45;;;;;;;9.35;3.37;;;;;;;12.38;92.27;99247.34;2204728;80;21632;-88
2021/10/16 10:11:47;;;;;;;7.05;3.10;;;;;;;12.45;93.46;99253.02;2194117;80;21044;-84
2021/10/16 10:14:48;;;;;;;7.87;3.30;;;;;;;12.40;92.26;99251.41;2210677;80;21055;-84
2021/10/16 10:17:49;;;;;;;8.68;3.90;;;;;;;12.37;89.31;99250.95;2210737;80;21041;-83
2021/10/16 10:20:50;;;;;;;7.42;3.52;;;;;;;12.33;92.46;99253.10;2217452;80;21016;-85
2021/10/16 10:23:51;;;;;;;11.35;3.72;;;;;;;12.32;93.60;99250.16;2218648;80;21061;-84
2021/10/16 10:27:03;;;;;;;11.00;3.45;;;;;;;12.32;89.64;99246.72;2218682;80;21568;-84
2021/10/16 10:29:59;;;;;;;6.85;3.55;;;;;;;12.26;88.66;99249.58;2198988;80;21534;-84
2021/10/16 10:33:00;;;;;;;8.40;3.50;;;;;;;12.29;92.47;99245.77;2200719;80;21064;-84
2021/10/16 10:36:01;;;;;;;8.98;3.50;;;;;;;12.34;88.14;99242.91;2204534;80;21519;-86
2021/10/16 10:39:02;;;;;;;6.20;3.30;;;;;;;12.41;86.89;99245.16;2182853;80;21027;-83
2021/10/16 10:42:03;;;;;;;7.03;4.22;;;;;;;12.41;85.04;99237.77;2209732;80;21083;-76
2021/10/16 10:45:04;;;;;;;8.63;3.10;;;;;;;12.38;83.80;99241.58;2215080;80;21020;-82
2021/10/16 10:48:04;;;;;;;15.88;4.72;;;;;;;12.40;82.74;99238.77;2222270;80;21119;-81
2021/10/16 10:51:05;;;;;;;8.58;3.85;;;;;;;12.30;85.42;99238.21;2216638;80;21064;-81
2021/10/16 10:54:06;;;;;;;7.60;3.75;;;;;;;12.21;84.71;99236.97;2210381;80;21059;-88
2021/10/16 10:57:07;;;;;;;8.28;4.03;;;;;;;12.03;84.56;99232.52;2218224;80;21066;-84
2021/10/16 11:00:09;;;;;;;9.88;4.15;;;;;;;11.94;86.67;99234.39;2198462;80;21012;-83
2021/10/16 11:03:12;;;;;;;8.60;3.35;;;;;;;11.93;87.20;99238.50;2178481;80;21036;-86
2021/10/16 11:06:13;;;;;;;10.55;4.53;;;;;;;12.00;86.70;99231.57;2185702;80;21028;-82
2021/10/16 11:09:14;;;;;;;7.80;3.85;;;;;;;12.02;87.14;99229.58;2218238;80;21056;-84
2021/10/16 11:12:15;;;;;;;8.38;4.25;;;;;;;11.94;86.51;99225.20;2214274;80;21068;-85
2021/10/16 11:15:15;;;;;;;11.30;5.05;;;;;;;11.85;85.09;99225.44;2193600;80;21023;-85
2021/10/16 11:18:16;;;;;;;12.78;5.03;;;;;;;11.83;86.46;99224.81;2184512;80;21103;-83
2021/10/16 11:21:20;;;;;;;12.10;4.60;;;;;;;11.93;87.36;99218.83;2209256;80;21096;-82
2021/10/16 11:24:20;;;;;;;9.78;5.30;;;;;;;11.98;84.95;99216.50;2212372;80;21543;-81
2021/10/16 11:27:21;;;;;;;10.23;4.67;;;;;;;11.93;86.44;99222.27;2215809;80;20970;-80
2021/10/16 11:30:22;;;;;;;11.63;4.70;;;;;;;11.93;87.16;99213.08;2224212;80;21008;-85
2021/10/16 11:33:25;;;;;;;12.45;4.55;;;;;;;11.92;87.14;99209.33;2196688;80;21032;-83
2021/10/16 11:36:26;;;;;;;12.73;4.25;;;;;;;11.83;87.91;99209.06;2188867;80;21476;-83
2021/10/16 11:39:29;;;;;;;9.03;4.50;;;;;;;11.65;85.80;99211.45;2191065;80;21084;-84
2021/10/16 11:42:30;;;;;;;8.75;4.10;;;;;;;11.57;87.35;99215.43;2221534;80;21160;-82
2021/10/16 11:45:31;;;;;;;11.40;4.85;;;;;;;11.86;88.24;99204.27;2198480;80;20969;-80
2021/10/16 11:48:32;;;;;;;7.30;4.15;;;;;;;11.86;88.24;99204.27;2194632;80;22155;-82
2021/10/16 11:51:32;;;;;;;11.78;4.20;;;;;;;12.00;87.75;99199.27;2184169;80;21016;-85
2021/10/16 11:54:33;;;;;;;9.43;4.17;;;;;;;12.04;85.81;99208.41;2188958;80;21048;-87
2021/10/16 11:57:34;;;;;;;11.38;4.80;;;;;;;12.04;85.73;99197.91;2199825;80;21087;-85
2021/10/16 12:00:35;;;;;;;12.15;4.00;;;;;;;12.11;87.39;99203.59;2192167;80;20970;-89
2021/10/16 12:03:39;;;;;;;11.18;4.33;;;;;;;12.16;85.15;99203.04;2217006;80;21067;-87
2021/10/16 12:06:38;;;;;;;7.28;3.72;;;;;;;12.12;86.04;99199.97;2215362;80;21041;-81
2021/10/16 12:09:39;;;;;;;9.90;3.25;;;;;;;12.08;84.98;99202.64;2214126;80;21068;-81
2021/10/16 12:12:40;;;;;;;6.83;4.60;;;;;;;12.10;85.30;99198.52;2200354;80;21008;-83
2021/10/16 12:15:41;;;;;;;9.58;4.28;;;;;;;12.05;84.09;99203.47;2197748;80;21127;-82
2021/10/16 12:18:42;;;;;;;16.45;4.08;;;;;;;11.90;84.72;99197.70;2206196;80;21001;-83
2021/10/16 12:21:42;;;;;;;9.10;4.22;;;;;;;11.76;85.04;99197.11;2188126;80;21119;-83
2021/10/16 12:24:43;;;;;;;9.95;5.37;;;;;;;11.62;84.85;99204.44;2184317;80;21126;-86
2021/10/16 12:27:44;;;;;;;12.80;4.58;;;;;;;11.50;85.35;99202.69;2188447;80;21028;-85
2021/10/16 12:30:45;;;;;;;12.07;4.62;;;;;;;11.39;85.57;99201.77;2194294;80;21044;-85
2021/10/16 12:33:46;;;;;;;12.53;4.78;;;;;;;11.35;89.37;99204.43;2215028;80;21072;-87
2021/10/16 12:36:47;;;;;;;10.60;5.72;;;;;;;11.32;86.80;99204.26;2184467;80;21062;-83
2021/10/16 12:39:47;;;;;;;13.53;4.78;;;;;;;11.31;85.85;99207.87;2184135;80;21024;-82
2021/10/16 12:42:48;;;;;;;15.80;5.75;;;;;;;11.28;86.24;99200.36;2195292;80;21080;-81
2021/10/16 12:45:49;;;;;;;12.23;6.55;;;;;;;11.34;86.37;99202.80;2203860;80;21057;-83
2021/10/16 12:48:52;;;;;;;12.82;6.85;;;;;;;11.43;86.89;99208.78;2199147;80;21087;-82
2021/10/16 12:51:52;;;;;;;12.75;6.90;;;;;;;11.50;86.50;99209.73;2197486;80;21108;-82
2021/10/16 12:54:53;;;;;;;11.25;6.45;;;;;;;11.47;85.88;99195.17;2205222;80;21001;-83
2021/10/16 12:57:54;;;;;;;13.65;5.87;;;;;;;11.51;85.98;99203.00;2162445;80;21059;-84
2021/10/16 13:00:55;;;;;;;14.55;6.50;;;;;;;11.42;85.57;99207.16;2173378;80;21043;-84
2021/10/16 13:03:56;;;;;;;13.32;6.33;;;;;;;11.34;86.29;99209.36;2173697;81;20973;-85
2021/10/16 13:06:57;;;;;;;14.20;5.30;;;;;;;11.29;86.70;99202.48;2187891;81;21069;-84
2021/10/16 13:09:59;;;;;;;12.35;5.03;;;;;;;11.24;86.46;99208.23;2171938;81;20997;-83
2021/10/16 13:13:00;;;;;;;14.43;4.90;;;;;;;11.18;86.59;99200.26;2169558;81;21104;-84
2021/10/16 13:16:01;;;;;;;14.35;6.15;;;;;;;11.15;86.44;99201.89;2193242;80;21009;-82
2021/10/16 13:19:01;;;;;;;13.45;5.87;;;;;;;11.13;86.94;99198.13;2176122;80;20958;-84
2021/10/16 13:22:02;;;;;;;12.18;7.65;;;;;;;11.13;87.42;99199.44;2167550;81;21032;-82
2021/10/16 13:25:03;;;;;;;15.55;6.67;;;;;;;11.16;87.53;99200.44;2167879;81;21037;-83
2021/10/16 13:28:04;;;;;;;9.78;6.08;;;;;;;11.13;88.16;99202.56;2168716;81;21054;-83
2021/10/16 13:31:05;;;;;;;18.42;7.35;;;;;;;11.05;87.96;99197.67;2169629;81;21037;-82
2021/10/16 13:34:05;;;;;;;8.10;4.12;;;;;;;11.02;87.91;99199.83;2167770;81;21005;-82
2021/10/16 13:37:06;;;;;;;16.55;7.80;;;;;;;11.00;87.28;99201.31;2167170;81;21097;-82
2021/10/16 13:40:07;;;;;;;17.90;8.55;;;;;;;11.01;86.41;99196.89;2167951;81;21509;-82
2021/10/16 13:43:08;;;;;;;17.70;7.50;;;;;;;11.04;87.43;99202.59;2168790;82;21025;-87
2021/10/16 13:46:09;;;;;;;17.05;7.35;;;;;;;11.09;87.22;99200.79;2170076;82;21280;-91
2021/10/16 13:49:10;;;;;;;14.60;7.17;;;;;;;11.12;86.83;99195.20;2135454;82;21120;-87
2021/10/16 13:52:11;;;;;;;14.95;5.78;;;;;;;11.13;86.71;99199.94;2163517;81;21561;-87
2021/10/16 13:55:12;;;;;;;9.48;4.90;;;;;;;11.13;86.74;99199.94;2147010;81;21008;-88
2021/10/16 13:58:12;;;;;;;12.65;7.35;;;;;;;11.11;86.08;99197.00;2146084;82;21012;-87
2021/10/16 14:01:13;;;;;;;20.12;9.50;;;;;;;11.02;85.48;99201.95;2153231;82;21076;-87
2021/10/16 14:04:14;;;;;;;16.45;8.15;;;;;;;10.87;85.73;99198.41;2133437;81;21092;-86
2021/10/16 14:07:15;;;;;;;15.60;6.42;;;;;;;10.80;86.67;99202.21;2127599;81;21077;-86
2021/10/16 14:10:15;;;;;;;14.93;8.48;;;;;;;10.72;86.27;99204.85;2187155;80;21081;-88
2021/10/16 14:13:16;;;;;;;19.05;8.55;;;;;;;10.66;87.51;99201.59;2197388;80;21570;-85
2021/10/16 14:16:17;;;;;;;16.62;8.03;;;;;;;10.59;87.07;99199.31;2170509;80;21577;-85
2021/10/16 14:19:18;;;;;;;13.93;7.83;;;;;;;10.54;87.65;99202.45;2160499;81;21108;-84
2021/10/16 14:22:19;;;;;;;15.90;8.25;;;;;;;10.48;87.68;99201.80;2153501;81;21005;-84
2021/10/16 14:25:20;;;;;;;17.17;8.03;;;;;;;10.45;88.18;99205.25;2168946;81;21531;-89
2021/10/16 14:28:22;;;;;;;21.27;10.35;;;;;;;10.43;88.12;99208.04;2170194;81;20997;-85
2021/10/16 14:31:23;;;;;;;27.52;11.95;;;;;;;10.40;88.81;99205.73;2181260;80;21560;-85
2021/10/16 14:34:24;;;;;;;21.80;11.20;;;;;;;10.46;89.24;99204.27;2170623;80;21151;-88
2021/10/16 14:37:25;;;;;;;26.70;12.43;;;;;;;10.44;89.98;99203.62;2169353;80;21208;-86
2021/10/16 14:40:25;;;;;;;28.35;12.47;;;;;;;10.44;91.38;99201.00;2171303;81;21043;-88
2021/10/16 14:43:26;;;;;;;20.43;11.30;;;;;;;10.43;91.42;99204.11;2154551;82;21076;-87
